Time;durP1;ratioP1;P1;durP2;ratioP2;P2;SDS_P1;SDS_P2;PMS_P1;PMS_P2;Temp;Humidity;BMP_temperature;BMP_pressure;BME280_temperature;BME280_humidity;BME280_pressure;Samples;Min_cycle;Max_cycle;Signal;HPM_P1;HPM_P2
2019/05/15 00:01:35;;;;;;;22;20;;;;;;;3.66;83.75391;943.5669;;;;
2019/05/15 00:04:02;;;;;;;21.9;19.7;;;;;;;3.58;84.37891;943.3951;;;;
2019/05/15 00:06:29;;;;;;;21.5;19.5;;;;;;;3.69;83.97266;943.4728;;;;
2019/05/15 00:08:57;;;;;;;17.4;15.8;;;;;;;4.06;82.19043;943.4511;;;;
2019/05/15 00:11:29;;;;;;;19;17.2;;;;;;;4.17;82.41406;943.5283;;;;
2019/05/15 00:13:54;;;;;;;18.3;16.6;;;;;;;4.16;81.26465;943.4955;;;;
2019/05/15 00:16:25;;;;;;;21.6;19.7;;;;;;;4.38;81.25098;943.4689;;;;
2019/05/15 00:18:54;;;;;;;20.4;18.6;;;;;;;4.44;81.36328;943.4911;;;;
2019/05/15 00:21:22;;;;;;;20.1;18.3;;;;;;;4.58;80.15137;943.4945;;;;
2019/05/15 00:23:52;;;;;;;17;15.5;;;;;;;4.36;80.03027;943.4497;;;;
2019/05/15 00:26:17;;;;;;;15.6;14.2;;;;;;;4.2;81.0127;943.4381;;;;
2019/05/15 00:28:58;;;;;;;15.8;14.3;;;;;;;4.08;81.7666;943.3615;;;;
2019/05/15 00:31:30;;;;;;;16.8;15.3;;;;;;;4.13;81.82129;943.3708;;;;
2019/05/15 00:33:54;;;;;;;17.8;16.2;;;;;;;4.25;81.28125;943.368;;;;
2019/05/15 00:36:35;;;;;;;18.5;16.8;;;;;;;4.16;81.71582;943.2554;;;;
2019/05/15 00:39:05;;;;;;;16.2;14.7;;;;;;;4.21;80.99316;943.2065;;;;
2019/05/15 00:41:37;;;;;;;16.2;14.8;;;;;;;4.11;81.63867;943.1912;;;;
2019/05/15 00:44:04;;;;;;;24.2;22;;;;;;;4.37;81.94727;943.1248;;;;
2019/05/15 00:46:37;;;;;;;22.9;20.9;;;;;;;4.47;82.19141;943.1359;;;;
2019/05/15 00:49:04;;;;;;;25.8;23.3;;;;;;;4.67;81.92578;943.115;;;;
2019/05/15 00:51:37;;;;;;;20.2;18.4;;;;;;;4.28;82.91895;943.0215;;;;
2019/05/15 00:54:05;;;;;;;19.8;18;;;;;;;4.26;83.06348;942.9256;;;;
2019/05/15 00:56:37;;;;;;;22.2;20.3;;;;;;;4.41;83.03516;942.8411;;;;
2019/05/15 00:59:12;;;;;;;22;20.1;;;;;;;4.7;81.12012;942.8566;;;;
2019/05/15 01:01:45;;;;;;;21.5;19.7;;;;;;;4.91;79.9541;942.8469;;;;
2019/05/15 01:04:11;;;;;;;18.2;16.6;;;;;;;4.78;79.18652;942.8384;;;;
2019/05/15 01:06:43;;;;;;;20.9;19;;;;;;;4.91;79.12012;942.8601;;;;
2019/05/15 01:09:13;;;;;;;24.1;21.9;;;;;;;5.12;78.9668;942.8084;;;;
2019/05/15 01:11:47;;;;;;;20.6;18.7;;;;;;;4.99;78.95313;942.7874;;;;
2019/05/15 01:14:22;;;;;;;22.1;20.2;;;;;;;4.72;80.77441;942.7626;;;;
2019/05/15 01:16:53;;;;;;;19.9;18.2;;;;;;;4.84;79.88574;942.7;;;;
2019/05/15 01:19:20;;;;;;;22.9;20.7;;;;;;;4.94;78.78809;942.6934;;;;
2019/05/15 01:21:48;;;;;;;22;20.1;;;;;;;4.76;79.6543;942.7224;;;;
2019/05/15 01:24:24;;;;;;;21.3;19.4;;;;;;;4.71;80.68262;942.6537;;;;
2019/05/15 01:26:51;;;;;;;25;22.8;;;;;;;4.73;80.76465;942.6314;;;;
2019/05/15 01:29:17;;;;;;;22.9;20.8;;;;;;;4.11;82.88672;942.649;;;;
2019/05/15 01:31:49;;;;;;;25.9;23.6;;;;;;;4.62;81.9375;942.5966;;;;
2019/05/15 01:34:14;;;;;;;26.2;23.9;;;;;;;5;79.55371;942.5298;;;;
2019/05/15 01:36:39;;;;;;;29.3;26.6;;;;;;;5.06;79.81348;942.5261;;;;
2019/05/15 01:39:11;;;;;;;27.2;24.7;;;;;;;5.02;80.06445;942.5245;;;;
2019/05/15 01:41:42;;;;;;;24.7;22.4;;;;;;;4.84;80.74219;942.4728;;;;
2019/05/15 01:44:08;;;;;;;21.8;19.8;;;;;;;4.84;79.68262;942.4561;;;;
2019/05/15 01:46:40;;;;;;;23.3;21.1;;;;;;;4.81;80.47754;942.399;;;;
2019/05/15 01:49:07;;;;;;;22.4;20.4;;;;;;;4.81;80.16016;942.4077;;;;
2019/05/15 01:51:34;;;;;;;26.5;24;;;;;;;4.79;80.26953;942.3876;;;;
2019/05/15 01:53:59;;;;;;;27.9;25.3;;;;;;;4.91;79.72852;942.3925;;;;
2019/05/15 01:56:27;;;;;;;23.9;21.8;;;;;;;4.53;81.04199;942.3664;;;;
2019/05/15 01:59:01;;;;;;;25.9;23.5;;;;;;;4.54;81.89063;942.4119;;;;
2019/05/15 02:01:36;;;;;;;28.8;26;;;;;;;4.69;81.48828;942.3483;;;;
2019/05/15 02:04:02;;;;;;;26.6;24;;;;;;;4.81;80.8457;942.2986;;;;
2019/05/15 02:06:36;;;;;;;25;22.5;;;;;;;4.64;81.2207;942.3094;;;;
2019/05/15 02:09:08;;;;;;;28.2;25.4;;;;;;;4.72;81.0459;942.2447;;;;
2019/05/15 02:11:35;;;;;;;24.6;22.3;;;;;;;4.76;80.77148;942.2675;;;;
2019/05/15 02:14:08;;;;;;;23;20.7;;;;;;;4.6;81.21387;942.2863;;;;
2019/05/15 02:16:41;;;;;;;24.9;22.4;;;;;;;4.62;81.72363;942.2725;;;;
2019/05/15 02:19:12;;;;;;;25.1;22.7;;;;;;;4.76;81.09863;942.217;;;;
2019/05/15 02:21:45;;;;;;;23.8;21.5;;;;;;;4.62;81.375;942.2352;;;;
2019/05/15 02:24:10;;;;;;;24.3;22;;;;;;;4.46;82.56152;942.2448;;;;
2019/05/15 02:26:38;;;;;;;21.4;19.2;;;;;;;4.46;82.2334;942.2453;;;;
2019/05/15 02:29:04;;;;;;;23.5;21.2;;;;;;;4.66;81.93555;942.2109;;;;
2019/05/15 02:31:45;;;;;;;22.3;20.2;;;;;;;4.98;81.12793;942.2031;;;;
2019/05/15 02:34:19;;;;;;;22;19.9;;;;;;;4.85;81.78027;942.1653;;;;
2019/05/15 02:36:43;;;;;;;22;19.9;;;;;;;4.99;81.06055;942.2319;;;;
2019/05/15 02:39:08;;;;;;;20.1;18.2;;;;;;;4.8;81.81445;942.1852;;;;
2019/05/15 02:41:35;;;;;;;19.8;17.9;;;;;;;4.91;81.31738;942.199;;;;
2019/05/15 02:44:03;;;;;;;19.8;17.9;;;;;;;4.89;81.14453;942.192;;;;
2019/05/15 02:46:37;;;;;;;21.8;19.7;;;;;;;4.89;81.47168;942.1581;;;;
2019/05/15 02:49:04;;;;;;;20.5;18.6;;;;;;;4.89;81.62891;942.1581;;;;
2019/05/15 02:51:40;;;;;;;20.3;18.2;;;;;;;4.63;82.97559;942.1417;;;;
2019/05/15 02:54:04;;;;;;;20;18.2;;;;;;;4.9;82.28516;942.1158;;;;
2019/05/15 02:56:37;;;;;;;20.1;18.3;;;;;;;4.98;82.44727;942.0344;;;;
2019/05/15 02:59:11;;;;;;;17.5;15.9;;;;;;;5.14;81.86914;941.9774;;;;
2019/05/15 03:01:51;;;;;;;16.9;15.3;;;;;;;5.17;81.66211;941.988;;;;
2019/05/15 03:04:17;;;;;;;16.3;14.7;;;;;;;5.16;81.85059;941.9723;;;;
2019/05/15 03:06:47;;;;;;;15.8;14.3;;;;;;;5.29;81.40039;942.0056;;;;
2019/05/15 03:09:15;;;;;;;17.8;16.1;;;;;;;5.25;81.13281;941.9244;;;;
2019/05/15 03:11:44;;;;;;;20.8;18.7;;;;;;;5.3;81.19922;941.9208;;;;
2019/05/15 03:14:15;;;;;;;20;18.2;;;;;;;5.43;80.37891;941.9247;;;;
2019/05/15 03:16:40;;;;;;;18.8;16.9;;;;;;;5.45;80.22656;941.8893;;;;
2019/05/15 03:19:10;;;;;;;19.6;17.8;;;;;;;5.3;80.80469;941.942;;;;
2019/05/15 03:21:44;;;;;;;20.4;18.5;;;;;;;5.19;81.02148;941.949;;;;
2019/05/15 03:24:15;;;;;;;21.1;19;;;;;;;5.27;80.81055;941.9522;;;;
2019/05/15 03:26:49;;;;;;;20;18;;;;;;;5.22;81.38867;941.9472;;;;
2019/05/15 03:29:22;;;;;;;17.7;16;;;;;;;5.24;80.92773;941.9755;;;;
2019/05/15 03:31:55;;;;;;;17.7;16;;;;;;;5.33;81.11621;941.9141;;;;
2019/05/15 03:34:18;;;;;;;15.3;13.8;;;;;;;5.41;80.46387;941.9138;;;;
2019/05/15 03:36:53;;;;;;;14.3;13.1;;;;;;;5.5;80.09766;941.882;;;;
2019/05/15 03:39:21;;;;;;;15.6;14.2;;;;;;;5.32;81.48535;941.8646;;;;
2019/05/15 03:41:53;;;;;;;15.4;14;;;;;;;5.41;81.11816;941.8379;;;;
2019/05/15 03:44:18;;;;;;;15.5;14.1;;;;;;;5.61;80.2793;941.8531;;;;
2019/05/15 03:46:51;;;;;;;15.1;13.7;;;;;;;5.54;80.47852;941.8708;;;;
2019/05/15 03:49:19;;;;;;;16.7;15.1;;;;;;;5.58;80.7334;941.8342;;;;
2019/05/15 03:51:54;;;;;;;16.3;14.7;;;;;;;5.59;80.75977;941.8166;;;;
2019/05/15 03:54:21;;;;;;;16.9;15.3;;;;;;;5.65;80.61133;941.8378;;;;
2019/05/15 03:56:51;;;;;;;16.8;15.2;;;;;;;5.43;81.42969;941.8317;;;;
2019/05/15 03:59:16;;;;;;;16;14.5;;;;;;;5.6;80.86328;941.858;;;;
2019/05/15 04:02:39;;;;;;;15.8;14.3;;;;;;;5.75;80.00977;941.928;;;;
2019/05/15 04:05:12;;;;;;;15.3;13.8;;;;;;;5.72;79.92578;941.8962;;;;
2019/05/15 04:07:44;;;;;;;16.1;14.7;;;;;;;5.67;80.70508;941.8494;;;;
2019/05/15 04:10:16;;;;;;;16;14.5;;;;;;;5.76;80.3291;941.8723;;;;
2019/05/15 04:12:43;;;;;;;15.9;14.3;;;;;;;5.81;80.33789;941.8314;;;;
2019/05/15 04:15:14;;;;;;;14.7;13.4;;;;;;;5.86;79.64551;941.8195;;;;
2019/05/15 04:17:42;;;;;;;14.1;12.7;;;;;;;5.72;79.62012;941.8755;;;;
2019/05/15 04:20:15;;;;;;;14.4;13;;;;;;;5.86;79.34277;941.819;;;;
2019/05/15 04:22:46;;;;;;;14.8;13.4;;;;;;;5.73;80.53516;941.8158;;;;
2019/05/15 04:25:13;;;;;;;14.9;13.4;;;;;;;5.96;79.49609;941.8123;;;;
2019/05/15 04:27:38;;;;;;;14.3;13;;;;;;;6.05;78.55273;941.7681;;;;
2019/05/15 04:30:10;;;;;;;15.9;14.4;;;;;;;5.91;79.83789;941.7609;;;;
2019/05/15 04:32:42;;;;;;;14.8;13.4;;;;;;;6.01;79.08691;941.7374;;;;
2019/05/15 04:35:07;;;;;;;15.4;13.9;;;;;;;6.1;79.08105;941.6509;;;;
2019/05/15 04:37:38;;;;;;;14.8;13.2;;;;;;;5.78;80.47949;941.6305;;;;
2019/05/15 04:40:09;;;;;;;15.3;13.9;;;;;;;6.11;79.30859;941.6458;;;;
2019/05/15 04:42:34;;;;;;;15;13.6;;;;;;;6.05;79.24023;941.5536;;;;
2019/05/15 04:45:06;;;;;;;16.4;14.8;;;;;;;6.07;79.71973;941.56;;;;
2019/05/15 04:47:39;;;;;;;16.2;14.8;;;;;;;6.06;79.89746;941.5277;;;;
2019/05/15 04:50:12;;;;;;;16.1;14.6;;;;;;;6.05;79.78223;941.5743;;;;
2019/05/15 04:52:34;;;;;;;16;14.5;;;;;;;6.07;79.88965;941.598;;;;
2019/05/15 04:55:05;;;;;;;16.7;15;;;;;;;6;79.9209;941.5525;;;;
2019/05/15 04:57:38;;;;;;;15.9;14.4;;;;;;;5.79;80.65039;941.6259;;;;
2019/05/15 05:00:03;;;;;;;15.8;14.3;;;;;;;5.82;80.97168;941.6033;;;;
2019/05/15 05:02:37;;;;;;;17.3;15.7;;;;;;;5.61;82.50098;941.6722;;;;
2019/05/15 05:05:13;;;;;;;18.2;16.3;;;;;;;5.47;82.95898;941.7199;;;;
2019/05/15 05:07:42;;;;;;;16.5;14.9;;;;;;;5.32;83.44727;941.6752;;;;
2019/05/15 05:10:10;;;;;;;15.4;14;;;;;;;5;84.14063;941.6545;;;;
2019/05/15 05:12:48;;;;;;;18.5;16.7;;;;;;;5.39;83.65332;941.6531;;;;
2019/05/15 05:15:04;;;;;;;16.5;14.8;;;;;;;5.6;82.88184;941.7109;;;;
2019/05/15 05:17:30;;;;;;;17.3;15.6;;;;;;;5.82;81.57031;941.6154;;;;
2019/05/15 05:20:03;;;;;;;17.5;15.7;;;;;;;5.65;81.74219;941.6902;;;;
2019/05/15 05:22:28;;;;;;;16;14.5;;;;;;;5.87;80.7998;941.646;;;;
2019/05/15 05:25:01;;;;;;;17.6;15.9;;;;;;;5.81;81.42188;941.6331;;;;
2019/05/15 05:27:32;;;;;;;16.5;15;;;;;;;6.03;80.55859;941.6139;;;;
2019/05/15 05:30:00;;;;;;;16.6;15;;;;;;;6.12;80.0127;941.6958;;;;
2019/05/15 05:32:24;;;;;;;15.6;14;;;;;;;6.14;78.9082;941.6816;;;;
2019/05/15 05:34:53;;;;;;;16.4;14.7;;;;;;;6.33;78.31934;941.6133;;;;
2019/05/15 05:37:23;;;;;;;16;14.3;;;;;;;6.22;79.08008;941.6383;;;;
2019/05/15 05:39:47;;;;;;;14.5;13.1;;;;;;;6.41;77.98438;941.574;;;;
2019/05/15 05:42:19;;;;;;;14.6;13;;;;;;;6.39;77.84473;941.6387;;;;
2019/05/15 05:44:44;;;;;;;14.4;13;;;;;;;6.31;78.44043;941.6191;;;;
2019/05/15 05:47:13;;;;;;;13;11.7;;;;;;;6.48;77.4209;941.5903;;;;
2019/05/15 05:49:39;;;;;;;12.1;11;;;;;;;6.24;77.75098;941.6281;;;;
2019/05/15 05:52:07;;;;;;;13.4;12;;;;;;;6.18;78.57617;941.6322;;;;
2019/05/15 05:54:44;;;;;;;14.4;13;;;;;;;6.4;78.69531;941.5829;;;;
2019/05/15 05:57:09;;;;;;;13.9;12.6;;;;;;;6.32;79.00977;941.5633;;;;
2019/05/15 05:59:36;;;;;;;15.3;13.7;;;;;;;6.5;78.03613;941.5294;;;;
2019/05/15 06:02:02;;;;;;;14;12.7;;;;;;;6.52;78.25391;941.5616;;;;
2019/05/15 06:04:34;;;;;;;14.4;13;;;;;;;6.75;77.44531;941.6381;;;;
2019/05/15 06:07:00;;;;;;;14.7;13.1;;;;;;;6.8;77.24023;941.5834;;;;
2019/05/15 06:09:39;;;;;;;14.3;12.9;;;;;;;6.65;77.51953;941.6369;;;;
2019/05/15 06:12:22;;;;;;;13.7;12.5;;;;;;;6.47;78.6084;941.6495;;;;
2019/05/15 06:14:48;;;;;;;12;10.9;;;;;;;6.63;77.14258;941.5666;;;;
2019/05/15 06:17:13;;;;;;;13.3;11.9;;;;;;;6.46;78.08398;941.634;;;;
2019/05/15 06:19:40;;;;;;;21.9;18.2;;;;;;;6.03;79.92578;941.6139;;;;
2019/05/15 06:22:11;;;;;;;12.1;10.9;;;;;;;6.51;78.00195;941.6259;;;;
2019/05/15 06:24:38;;;;;;;13;11.8;;;;;;;6.58;78.00586;941.6583;;;;
2019/05/15 06:27:12;;;;;;;13.1;11.8;;;;;;;6.32;79.04199;941.6691;;;;
2019/05/15 06:29:42;;;;;;;12.1;10.9;;;;;;;6.4;78.74219;941.7262;;;;
2019/05/15 06:32:08;;;;;;;12;10.8;;;;;;;6.58;77.80176;941.7302;;;;
2019/05/15 06:34:37;;;;;;;11.7;10.5;;;;;;;6.37;78.08105;941.7325;;;;
2019/05/15 06:37:07;;;;;;;11.7;10.5;;;;;;;6.73;76.84375;941.7238;;;;
2019/05/15 06:39:30;;;;;;;11.6;10.5;;;;;;;6.75;76.94727;941.79;;;;
2019/05/15 06:41:55;;;;;;;10.9;9.8;;;;;;;6.74;76.67578;941.7606;;;;
2019/05/15 06:44:23;;;;;;;11.5;10.3;;;;;;;6.56;76.92578;941.694;;;;
2019/05/15 06:46:54;;;;;;;10.9;9.8;;;;;;;6.67;76.95703;941.7238;;;;
2019/05/15 06:49:16;;;;;;;11;9.9;;;;;;;6.83;76.28418;941.7547;;;;
2019/05/15 06:51:42;;;;;;;12.4;10.5;;;;;;;6.95;76.02051;941.7415;;;;
2019/05/15 06:54:16;;;;;;;11.1;9.6;;;;;;;6.91;76.0498;941.7737;;;;
2019/05/15 06:56:48;;;;;;;10.4;9;;;;;;;6.64;76.83887;941.7681;;;;
2019/05/15 06:59:15;;;;;;;10.3;9.3;;;;;;;6.53;78.49316;941.7595;;;;
2019/05/15 07:01:44;;;;;;;10.1;8.4;;;;;;;6.64;77.73242;941.7933;;;;
2019/05/15 07:04:17;;;;;;;10.6;8.9;;;;;;;6.81;77.83008;941.7601;;;;
2019/05/15 07:06:43;;;;;;;9.7;8.4;;;;;;;6.89;75.9668;941.8008;;;;
2019/05/15 07:09:12;;;;;;;8.8;7.9;;;;;;;6.93;75.67773;941.7979;;;;
2019/05/15 07:11:55;;;;;;;10.9;8.3;;;;;;;6.84;76.16113;941.8169;;;;
2019/05/15 07:14:22;;;;;;;8.5;7.6;;;;;;;6.93;75.58984;941.7847;;;;
2019/05/15 07:16:45;;;;;;;9.1;7.9;;;;;;;6.64;77.29004;941.8445;;;;
2019/05/15 07:19:13;;;;;;;9.2;8;;;;;;;6.8;76.19824;941.8873;;;;
2019/05/15 07:21:46;;;;;;;9.8;7.9;;;;;;;7.01;75.5127;941.8385;;;;
2019/05/15 07:24:19;;;;;;;8.1;7.4;;;;;;;6.55;76.8125;941.8672;;;;
2019/05/15 07:26:50;;;;;;;8.5;7.7;;;;;;;6.44;78.43164;941.8416;;;;
2019/05/15 07:29:22;;;;;;;9.3;8.3;;;;;;;6.79;76.98926;941.9512;;;;
2019/05/15 07:31:53;;;;;;;8.3;7.5;;;;;;;6.77;76.7373;941.877;;;;
2019/05/15 07:34:27;;;;;;;9.5;8.5;;;;;;;6.69;77.62793;941.8745;;;;
2019/05/15 07:36:51;;;;;;;9.5;8.2;;;;;;;6.72;77.19238;941.8677;;;;
2019/05/15 07:39:41;;;;;;;8.6;7.8;;;;;;;6.83;77.15625;941.8474;;;;
2019/05/15 07:42:18;;;;;;;8.8;7.9;;;;;;;7.17;76.46973;941.805;;;;
2019/05/15 07:44:43;;;;;;;8.7;7.9;;;;;;;6.93;77.37891;941.81;;;;
2019/05/15 07:47:27;;;;;;;9;8.1;;;;;;;7.07;76.86914;941.8045;;;;
2019/05/15 07:49:49;;;;;;;8.7;7.8;;;;;;;7.26;75.69141;941.807;;;;
2019/05/15 07:52:17;;;;;;;9.3;8.3;;;;;;;7.17;76.07324;941.8517;;;;
2019/05/15 07:54:45;;;;;;;9.2;8.4;;;;;;;7.27;76.47461;941.8445;;;;
2019/05/15 07:57:12;;;;;;;9;8.2;;;;;;;7.39;74.97656;941.8438;;;;
2019/05/15 07:59:40;;;;;;;10.1;8.8;;;;;;;7.53;75.19434;941.9135;;;;
2019/05/15 08:02:08;;;;;;;11.6;9.7;;;;;;;7.36;75.31348;941.8795;;;;
2019/05/15 08:04:34;;;;;;;11;9.5;;;;;;;7.51;75.62109;941.8686;;;;
2019/05/15 08:07:06;;;;;;;11.5;10.2;;;;;;;7.5;75.33691;941.9026;;;;
2019/05/15 08:09:38;;;;;;;10.7;9.6;;;;;;;7.74;73.76953;941.9813;;;;
2019/05/15 08:12:12;;;;;;;10.8;9.7;;;;;;;7.88;73.37305;941.9669;;;;
2019/05/15 08:14:46;;;;;;;10;9;;;;;;;8.22;71.875;941.9189;;;;
2019/05/15 08:17:10;;;;;;;9.7;8.8;;;;;;;7.95;72.38672;941.9107;;;;
2019/05/15 08:19:40;;;;;;;10.4;9.4;;;;;;;8.19;72.30078;941.9931;;;;
2019/05/15 08:22:08;;;;;;;10;9;;;;;;;8.5;71.1377;941.9689;;;;
2019/05/15 08:24:38;;;;;;;10;9;;;;;;;8.69;71.1709;941.9536;;;;
2019/05/15 08:27:09;;;;;;;9.4;8.5;;;;;;;8.49;71.38672;941.902;;;;
2019/05/15 08:29:37;;;;;;;9.9;8.9;;;;;;;8.57;71.55957;941.9252;;;;
2019/05/15 08:32:19;;;;;;;9.6;8.6;;;;;;;8.8;70.00488;941.89;;;;
2019/05/15 08:34:50;;;;;;;10.1;9.1;;;;;;;8.48;72.3623;942.0002;;;;
2019/05/15 08:37:15;;;;;;;10.5;9.5;;;;;;;8.66;72.50488;941.9353;;;;
2019/05/15 08:39:48;;;;;;;10.3;9.3;;;;;;;8.66;72.61816;941.8972;;;;
2019/05/15 08:42:17;;;;;;;9.7;8.6;;;;;;;8.79;71.50391;941.916;;;;
2019/05/15 08:44:52;;;;;;;9.5;8.6;;;;;;;8.77;70.6709;941.926;;;;
2019/05/15 08:47:14;;;;;;;10;9.1;;;;;;;8.82;72.64551;941.859;;;;
2019/05/15 08:49:38;;;;;;;10.2;9.2;;;;;;;8.49;73.02246;941.8639;;;;
2019/05/15 08:52:14;;;;;;;9.3;8.5;;;;;;;8.84;70.74023;941.8951;;;;
2019/05/15 08:54:43;;;;;;;9;8.2;;;;;;;8.85;70.86621;941.9621;;;;
2019/05/15 10:56:06;;;;;;;9.4;8.5;;;;;;;8.51;71.55957;941.5237;;;;
2019/05/15 10:58:33;;;;;;;6.3;5.7;;;;;;;8.84;69.64844;941.4419;;;;
2019/05/15 11:01:01;;;;;;;5.6;5.1;;;;;;;8.73;69.16309;941.3748;;;;
2019/05/15 11:03:29;;;;;;;5.5;5;;;;;;;8.81;69.30078;941.4277;;;;
2019/05/15 11:05:56;;;;;;;5.2;4.7;;;;;;;9.19;68.81543;941.4428;;;;
2019/05/15 11:08:24;;;;;;;5.6;5.1;;;;;;;9.29;68.49023;941.3798;;;;
2019/05/15 11:10:57;;;;;;;5.9;5.4;;;;;;;9.35;67.58789;941.485;;;;
2019/05/15 11:13:30;;;;;;;5.9;5.4;;;;;;;9.35;66.47363;941.4041;;;;
2019/05/15 11:16:04;;;;;;;6.9;6.3;;;;;;;9.32;68.42773;941.5123;;;;
2019/05/15 11:18:37;;;;;;;7.3;6.3;;;;;;;8.84;68.81641;941.4297;;;;
2019/05/15 11:21:14;;;;;;;7;6.3;;;;;;;8.84;68.7832;941.4378;;;;
2019/05/15 11:23:42;;;;;;;6.8;5.9;;;;;;;8.74;69.5293;941.3822;;;;
2019/05/15 11:26:18;;;;;;;8;5.7;;;;;;;9.02;68.02734;941.4529;;;;
2019/05/15 11:28:50;;;;;;;8.4;6.8;;;;;;;8.91;69.92969;941.4495;;;;
2019/05/15 11:31:20;;;;;;;7.8;6.6;;;;;;;8.98;69.24902;941.4899;;;;
2019/05/15 11:33:46;;;;;;;6.5;5.8;;;;;;;8.93;69.06934;941.4984;;;;
2019/05/15 11:36:19;;;;;;;6.8;6.2;;;;;;;9.01;68.73047;941.4877;;;;
2019/05/15 11:39:01;;;;;;;6.7;5.8;;;;;;;8.5;70.65918;941.491;;;;
2019/05/15 11:41:20;;;;;;;9.1;6.6;;;;;;;8.65;70.62793;941.4747;;;;
2019/05/15 11:43:54;;;;;;;7;6.3;;;;;;;8.88;70.4043;941.4727;;;;
2019/05/15 11:46:22;;;;;;;7;6.3;;;;;;;9.24;68.36719;941.5068;;;;
2019/05/15 11:48:52;;;;;;;7.4;6.7;;;;;;;8.76;69.70117;941.4572;;;;
2019/05/15 11:51:42;;;;;;;6.6;5.9;;;;;;;9.03;68.91504;941.4355;;;;
2019/05/15 11:54:15;;;;;;;8.1;6.4;;;;;;;9.08;69.11719;941.4391;;;;
2019/05/15 11:56:41;;;;;;;8.3;6;;;;;;;9.22;67.48828;941.3602;;;;
2019/05/15 11:59:09;;;;;;;6.6;6;;;;;;;9.05;69.70313;941.3701;;;;
2019/05/15 12:01:33;;;;;;;6.7;5.9;;;;;;;9.12;68.95215;941.4445;;;;
2019/05/15 12:04:03;;;;;;;8.7;6;;;;;;;9.39;69.74707;941.4175;;;;
2019/05/15 12:06:32;;;;;;;8.2;6.1;;;;;;;9.12;69.47754;941.3636;;;;
2019/05/15 12:09:06;;;;;;;6.8;6;;;;;;;9.18;68.99609;941.3423;;;;
2019/05/15 12:11:36;;;;;;;7.5;6.2;;;;;;;9.01;68.70703;941.3054;;;;
2019/05/15 12:14:07;;;;;;;8.4;6.4;;;;;;;8.99;70.68555;941.3742;;;;
2019/05/15 12:16:38;;;;;;;6.7;6.1;;;;;;;9.28;68.2832;941.3423;;;;
2019/05/15 12:19:06;;;;;;;6.7;6;;;;;;;9.25;68.45996;941.3027;;;;
2019/05/15 12:21:34;;;;;;;6.4;5.7;;;;;;;9.08;68.92383;941.3508;;;;
2019/05/15 12:23:59;;;;;;;7.2;6.2;;;;;;;9.51;69.10645;941.2594;;;;
2019/05/15 12:26:35;;;;;;;7.2;6.5;;;;;;;9.52;67.95605;941.3223;;;;
2019/05/15 12:29:07;;;;;;;6.8;6.1;;;;;;;9.67;67.34277;941.3644;;;;
2019/05/15 12:31:39;;;;;;;7.2;6.2;;;;;;;9.88;66.42871;941.3212;;;;
2019/05/15 12:34:10;;;;;;;6.4;5.8;;;;;;;9.85;66.31055;941.3239;;;;
2019/05/15 12:36:53;;;;;;;7.3;5.9;;;;;;;9.98;66.18164;941.3929;;;;
2019/05/15 12:39:29;;;;;;;6.2;5.6;;;;;;;10.14;64.62109;941.3242;;;;
2019/05/15 12:42:01;;;;;;;6.5;5.8;;;;;;;9.89;65.34863;941.4264;;;;
2019/05/15 12:44:29;;;;;;;7.2;5.7;;;;;;;9.87;64.71875;941.3936;;;;
2019/05/15 12:46:56;;;;;;;7.4;4.8;;;;;;;9.72;65.77832;941.3985;;;;
2019/05/15 12:49:29;;;;;;;6.9;5.4;;;;;;;9.58;65.47266;941.2742;;;;
2019/05/15 12:51:59;;;;;;;12.8;11.1;;;;;;;8.9;68.12109;941.3311;;;;
2019/05/15 12:54:30;;;;;;;6.6;5.9;;;;;;;8.99;68.55664;941.3367;;;;
2019/05/15 12:57:02;;;;;;;8.8;6;;;;;;;9.2;68.44141;941.3658;;;;
2019/05/15 12:59:27;;;;;;;7.1;6.2;;;;;;;9.26;67.84863;941.3315;;;;
2019/05/15 13:02:01;;;;;;;8.4;5.6;;;;;;;9.47;67.15039;941.3564;;;;
2019/05/15 13:04:27;;;;;;;7.3;6;;;;;;;9.61;67.00391;941.3354;;;;
2019/05/15 13:06:56;;;;;;;7.7;5.8;;;;;;;9.7;67.84961;941.3403;;;;
2019/05/15 13:09:22;;;;;;;6.2;5.5;;;;;;;10;66.39063;941.2723;;;;
2019/05/15 13:11:59;;;;;;;7.5;5.4;;;;;;;10.17;65.66406;941.3214;;;;
2019/05/15 13:14:27;;;;;;;7.3;5.2;;;;;;;10.28;64.41406;941.2991;;;;
2019/05/15 13:16:59;;;;;;;8.7;5.7;;;;;;;10.19;65.1543;941.2391;;;;
2019/05/15 13:19:24;;;;;;;6.2;5.2;;;;;;;10.12;64.70996;941.2961;;;;
2019/05/15 13:21:52;;;;;;;7.7;5.6;;;;;;;10.47;64.05469;941.2402;;;;
2019/05/15 13:24:18;;;;;;;6.6;4.7;;;;;;;10.66;60.83887;941.1931;;;;
2019/05/15 13:26:52;;;;;;;5.3;4.8;;;;;;;10.49;60.94043;941.1791;;;;
2019/05/15 13:29:17;;;;;;;5.6;5;;;;;;;10.45;61.6543;941.1953;;;;
2019/05/15 13:31:47;;;;;;;7.6;4.8;;;;;;;10.69;61.17383;941.1997;;;;
2019/05/15 13:34:19;;;;;;;7.7;4.9;;;;;;;10.45;61.12988;941.1356;;;;
2019/05/15 13:36:54;;;;;;;6.3;5.2;;;;;;;10.23;64.75977;941.1719;;;;
2019/05/15 13:39:17;;;;;;;6.7;4.9;;;;;;;10.03;63.14453;941.2103;;;;
2019/05/15 13:41:51;;;;;;;5.3;4.6;;;;;;;9.56;65.70801;941.1705;;;;
2019/05/15 13:44:19;;;;;;;6.2;5;;;;;;;9.88;65.04883;941.1813;;;;
2019/05/15 13:46:44;;;;;;;5;4.5;;;;;;;10.21;62.85156;941.1569;;;;
2019/05/15 13:49:16;;;;;;;5.4;4.6;;;;;;;10.22;62.90039;941.1431;;;;
2019/05/15 13:51:40;;;;;;;5.9;4.6;;;;;;;10.19;62.37012;941.1325;;;;
2019/05/15 13:54:11;;;;;;;6.3;4.8;;;;;;;9.73;64.73145;941.1682;;;;
2019/05/15 13:56:45;;;;;;;8.6;5.5;;;;;;;9.48;65.04785;941.1007;;;;
2019/05/15 13:59:13;;;;;;;6.2;4.9;;;;;;;9.44;65.00684;941.2184;;;;
2019/05/15 14:01:40;;;;;;;5.6;4.9;;;;;;;9.48;63.89746;941.1389;;;;
2019/05/15 14:04:10;;;;;;;5.7;4.9;;;;;;;9.62;64.28223;941.144;;;;
2019/05/15 14:06:34;;;;;;;6.6;4.9;;;;;;;9.72;64.31934;941.0677;;;;
2019/05/15 14:08:59;;;;;;;6.6;5;;;;;;;9.38;64.87305;941.1002;;;;
2019/05/15 14:11:30;;;;;;;6.5;5.1;;;;;;;9.77;64.73633;941.1267;;;;
2019/05/15 14:13:56;;;;;;;5.6;5.1;;;;;;;9.76;64.65527;941.0557;;;;
2019/05/15 14:16:28;;;;;;;6.3;4.8;;;;;;;10.01;63.88379;941.0466;;;;
2019/05/15 14:19:04;;;;;;;9.2;5.5;;;;;;;9.99;63.7998;941.0613;;;;
2019/05/15 14:21:34;;;;;;;9.7;5.4;;;;;;;9.5;64.93555;941.0399;;;;
2019/05/15 14:24:16;;;;;;;6.1;5.5;;;;;;;9.57;63.90918;941.072;;;;
2019/05/15 14:26:50;;;;;;;7.6;5.4;;;;;;;9.88;64.35352;941.0667;;;;
2019/05/15 14:29:25;;;;;;;6.3;5.1;;;;;;;9.87;64.14844;940.9824;;;;
2019/05/15 14:31:55;;;;;;;8.4;5.8;;;;;;;9.97;63.39941;940.9139;;;;
2019/05/15 14:34:29;;;;;;;10.9;5.5;;;;;;;9.45;65.67969;940.9253;;;;
2019/05/15 14:37:03;;;;;;;7.6;5.5;;;;;;;9.7;65.125;940.9506;;;;
2019/05/15 14:39:31;;;;;;;10.1;6.2;;;;;;;9.07;68.00195;940.9908;;;;
2019/05/15 14:42:07;;;;;;;8.2;5.3;;;;;;;9.67;65.21191;940.9573;;;;
2019/05/15 14:44:40;;;;;;;6.5;5.6;;;;;;;9.78;65.75195;940.9565;;;;
2019/05/15 14:47:11;;;;;;;11.7;6.2;;;;;;;9.88;66.51953;940.9267;;;;
2019/05/15 14:49:46;;;;;;;7.2;5.3;;;;;;;10.02;65.28809;940.9356;;;;
2019/05/15 14:52:19;;;;;;;7.2;5.3;;;;;;;10.25;65.23145;940.9413;;;;
2019/05/15 14:54:43;;;;;;;6.7;5.3;;;;;;;9.69;64.51953;940.9941;;;;
2019/05/15 14:57:10;;;;;;;7.3;5.6;;;;;;;9.48;65.98145;940.9521;;;;
2019/05/15 14:59:36;;;;;;;7.6;5.8;;;;;;;9.52;66.77344;940.9615;;;;
2019/05/15 15:02:02;;;;;;;8;5.6;;;;;;;9.41;65.85645;940.9116;;;;
2019/05/15 15:04:30;;;;;;;8.1;5.6;;;;;;;9.33;66.24316;940.8847;;;;
2019/05/15 15:07:07;;;;;;;8.5;5.9;;;;;;;9.5;65.96191;940.9039;;;;
2019/05/15 15:09:39;;;;;;;14.2;7.3;;;;;;;9.73;66.875;940.9559;;;;
2019/05/15 15:12:09;;;;;;;9.9;6.5;;;;;;;9.76;68.40625;940.9406;;;;
2019/05/15 15:14:44;;;;;;;10.9;5.7;;;;;;;9.69;67.20996;940.9258;;;;
2019/05/15 15:17:07;;;;;;;9.5;5.8;;;;;;;9.21;69.27344;940.8861;;;;
2019/05/15 15:19:39;;;;;;;12;6.1;;;;;;;9.35;70.81152;940.87;;;;
2019/05/15 15:22:05;;;;;;;18.6;6.7;;;;;;;9.17;71.09863;940.8814;;;;
2019/05/15 15:24:32;;;;;;;16.2;6;;;;;;;9.27;70.10352;940.9106;;;;
2019/05/15 15:26:59;;;;;;;8.7;5.8;;;;;;;9.21;67.04395;940.9072;;;;
2019/05/15 15:29:33;;;;;;;20.2;13;;;;;;;9.54;68.56445;940.8879;;;;
2019/05/15 15:32:02;;;;;;;7.9;5.3;;;;;;;9.5;69.29785;940.8577;;;;
2019/05/15 15:34:34;;;;;;;5.9;4.5;;;;;;;9.75;65.03027;940.8528;;;;
2019/05/15 15:37:11;;;;;;;5.2;4.7;;;;;;;9.82;65.0293;940.8344;;;;
2019/05/15 15:39:50;;;;;;;5.9;4.5;;;;;;;10.06;62.7168;940.817;;;;
2019/05/15 15:42:21;;;;;;;9.7;6.4;;;;;;;10.19;63.47656;940.8269;;;;
2019/05/15 15:44:48;;;;;;;9.2;5.4;;;;;;;9.98;61.79297;940.7733;;;;
2019/05/15 15:47:22;;;;;;;8.2;5.7;;;;;;;9.59;63.37793;940.8244;;;;
2019/05/15 15:49:49;;;;;;;6.6;5.3;;;;;;;9.2;64.31152;940.7978;;;;
2019/05/15 15:52:16;;;;;;;14.2;5.9;;;;;;;9.22;68.03418;940.8095;;;;
2019/05/15 15:54:45;;;;;;;8.2;6.1;;;;;;;9.81;66.97754;940.7372;;;;
2019/05/15 15:57:23;;;;;;;11.5;6.1;;;;;;;9.73;64.19531;940.7611;;;;
2019/05/15 15:59:47;;;;;;;16.4;6.6;;;;;;;9.89;65.13184;940.6796;;;;
2019/05/15 16:02:14;;;;;;;10.4;6.8;;;;;;;10.21;63.2168;940.7833;;;;
2019/05/15 16:04:49;;;;;;;10.7;6;;;;;;;10.15;64.17871;940.7332;;;;
2019/05/15 16:07:34;;;;;;;11.5;5.8;;;;;;;10.08;65.125;940.7949;;;;
2019/05/15 16:09:58;;;;;;;9.1;6.2;;;;;;;9.63;65.78711;940.7148;;;;
2019/05/15 16:12:29;;;;;;;9.1;6.2;;;;;;;9.36;67.84082;940.666;;;;
2019/05/15 16:17:33;;;;;;;10.8;6;;;;;;;9.88;66.32715;940.6166;;;;
2019/05/15 16:20:05;;;;;;;8.5;6.5;;;;;;;9.66;69.13184;940.6741;;;;
2019/05/15 16:22:38;;;;;;;9.7;6;;;;;;;9.33;68.61133;940.702;;;;
2019/05/15 16:25:14;;;;;;;9.4;6.5;;;;;;;9.41;68.45313;940.7633;;;;
2019/05/15 16:27:41;;;;;;;12.6;8.2;;;;;;;9.38;66.26074;940.7322;;;;
2019/05/15 16:30:09;;;;;;;8;6;;;;;;;9.38;68.4375;940.7951;;;;
2019/05/15 16:32:43;;;;;;;9.3;6.4;;;;;;;9.31;68.36914;940.7802;;;;
2019/05/15 16:35:16;;;;;;;10.1;6.6;;;;;;;9.33;67.80273;940.7528;;;;
2019/05/15 16:37:44;;;;;;;9.9;6;;;;;;;9.23;67.0127;940.7447;;;;
2019/05/15 16:40:20;;;;;;;13;6.3;;;;;;;9.32;67.20898;940.72;;;;
2019/05/15 16:42:46;;;;;;;13.4;8.7;;;;;;;9.35;69.49023;940.777;;;;
2019/05/15 16:45:19;;;;;;;10;5.7;;;;;;;9.06;70.66016;940.7594;;;;